Lac La Biche, Alberta

Conditions des dernières 24 heures

Date / Heure
(HAR)
Conditions Temp
(°C)
Humidité
(%)
Point de rosée
(°C)
Vent
(km/h)
Pression
(kPa)
Visibilité
(km)
05 juillet 2015
11:00 N.D. 15 44 3 NNE 20 rafale 29 102,2 N.D.
10:00 N.D. 14 55 5 NE 19 rafale 29 102,2 N.D.
9:00 N.D. 12 71 7 N 19 102,2 N.D.
8:00 N.D. 12 80 8 NNO 13 rafale 28 102,1 N.D.
7:00 N.D. 11   88 9 NNO 14 102,0 N.D.
6:00 N.D. 11   92 10 N 17 101,9 N.D.
5:00 N.D. 12 92 10 NNO 13 101,8 N.D.
4:00 N.D. 13 87 10 NNO 10 101,8 N.D.
3:00 N.D. 13 87 11 NNO 9 101,7 N.D.
2:00 N.D. 12 86 10 NNO 14 101,7 N.D.
1:00 N.D. 13 86 10 NNO 11 101,7 N.D.
0:00 N.D. 13 87 11 NNO 14 101,7 N.D.
04 juillet 2015
23:00 N.D. 13 87 10 NO 9 101,6 N.D.
22:00 N.D. 13 81 10 NNO 12 101,6 N.D.
21:00 N.D. 13 87 11 NO 5 101,5 N.D.
20:00 N.D. 13 79 10 NNO 8 101,5 N.D.
19:00 N.D. 15 69 9 N 9 101,4 N.D.
18:00 N.D. 19 43 6 NO 25 rafale 38 101,3 N.D.
17:00 N.D. 18 50 7 NO 11 101,3 N.D.
16:00 N.D. 22   28 3 ONO 27 rafale 39 101,2 N.D.
15:00 N.D. 19 38 4 ONO 14 101,2 N.D.
14:00 N.D. 21 31 3 O 19 rafale 31 101,2 N.D.
13:00 N.D. 21 37 6 NNO 9 101,2 N.D.
12:00 N.D. 19 44 6 ONO 10 101,2 N.D.
11:00 N.D. 18 45 6 NO 11 101,2 N.D.
N.D. non disponible
↑ température la plus haute
↓ température la plus basse

Si vous désirez plus de données historiques sur les conditions météo, s.v.p. visitez Données climatologiques en ligne.

Ce que nous faisons

Date de modification :